Time;durP1;ratioP1;P1;durP2;ratioP2;P2;SDS_P1;SDS_P2;PMS_P1;PMS_P2;Temp;Humidity;BMP_temperature;BMP_pressure;BME280_temperature;BME280_humidity;BME280_pressure;Samples;Min_cycle;Max_cycle;Signal;HPM_P1;HPM_P2
2023/12/01 00:01:10;;;;;;;42.92;20.63;;;;;;;3.19;74.20;98609.06;5013923;28;20060;-80
2023/12/01 00:03:37;;;;;;;38.97;20.42;;;;;;;3.17;74.25;98599.63;4996162;28;20050;-80
2023/12/01 00:06:04;;;;;;;39.30;20.35;;;;;;;3.15;74.54;98609.25;4996215;28;20053;-80
2023/12/01 00:08:30;;;;;;;39.55;20.83;;;;;;;3.12;74.25;98600.69;4996290;28;20089;-80
2023/12/01 00:10:57;;;;;;;43.25;20.80;;;;;;;3.12;74.78;98608.47;5013890;28;20510;-81
2023/12/01 00:13:23;;;;;;;40.67;21.40;;;;;;;3.10;74.75;98605.09;5013699;28;20062;-81
2023/12/01 00:15:51;;;;;;;40.83;20.85;;;;;;;3.10;74.73;98609.47;4995909;28;20089;-79
2023/12/01 00:18:18;;;;;;;47.45;22.77;;;;;;;3.08;75.10;98599.13;5013470;28;20634;-80
2023/12/01 00:20:44;;;;;;;44.40;21.23;;;;;;;3.10;75.18;98599.06;5013416;28;20085;-80
2023/12/01 00:23:11;;;;;;;48.38;22.95;;;;;;;3.09;74.77;98603.41;5013403;28;20137;-80
2023/12/01 00:25:37;;;;;;;46.88;23.00;;;;;;;3.10;74.55;98609.47;4995839;28;20435;-80
2023/12/01 00:28:04;;;;;;;47.78;23.48;;;;;;;3.08;74.76;98609.53;5013562;28;20046;-80
2023/12/01 00:30:31;;;;;;;49.35;23.58;;;;;;;3.06;74.82;98605.31;4995771;28;20053;-79
2023/12/01 00:33:00;;;;;;;51.28;23.10;;;;;;;3.07;75.21;98613.03;5013452;28;20089;-80
2023/12/01 00:35:27;;;;;;;52.00;23.85;;;;;;;3.05;74.65;98606.22;5013169;28;20521;-80
2023/12/01 00:37:53;;;;;;;48.85;22.95;;;;;;;3.06;75.06;98615.72;5013303;28;20050;-81
2023/12/01 00:40:20;;;;;;;49.22;24.23;;;;;;;3.06;74.99;98613.13;5013172;28;20081;-80
2023/12/01 00:42:46;;;;;;;53.05;26.05;;;;;;;3.06;74.75;98615.72;4995699;28;20120;-80
2023/12/01 00:45:15;;;;;;;46.83;24.17;;;;;;;3.04;74.99;98614.94;5012707;28;20050;-79
2023/12/01 00:47:41;;;;;;;51.03;23.80;;;;;;;3.04;74.72;98617.53;4995354;28;20864;-80
2023/12/01 00:50:09;;;;;;;52.25;24.33;;;;;;;3.02;74.68;98616.75;4995673;28;20085;-81
2023/12/01 00:52:36;;;;;;;46.25;23.55;;;;;;;3.00;74.79;98620.25;5013046;28;20133;-78
2023/12/01 00:55:03;;;;;;;49.10;24.10;;;;;;;2.98;74.57;98622.09;5012783;28;20387;-80
2023/12/01 00:57:29;;;;;;;44.75;23.67;;;;;;;2.97;74.96;98629.94;5012991;28;20046;-81
2023/12/01 00:59:56;;;;;;;43.53;22.10;;;;;;;2.95;74.56;98627.41;5012607;28;20057;-80
2023/12/01 01:02:22;;;;;;;45.70;22.40;;;;;;;2.94;74.79;98638.72;5013013;28;20513;-80
2023/12/01 01:04:49;;;;;;;46.80;22.17;;;;;;;2.92;74.60;98630.16;4995052;28;20499;-80
2023/12/01 01:07:15;;;;;;;49.50;24.35;;;;;;;2.92;74.84;98631.91;5012923;28;20046;-82
2023/12/01 01:09:42;;;;;;;46.88;22.67;;;;;;;2.89;74.28;98635.50;4995025;28;20049;-81
2023/12/01 01:12:08;;;;;;;47.13;22.58;;;;;;;2.88;74.60;98636.41;5012585;28;20077;-81
2023/12/01 01:14:35;;;;;;;44.38;20.98;;;;;;;2.86;74.73;98643.41;5012281;28;20088;-81
2023/12/01 01:17:01;;;;;;;44.50;20.65;;;;;;;2.82;74.21;98636.66;5012468;28;20132;-80
2023/12/01 01:19:28;;;;;;;44.92;21.02;;;;;;;2.79;74.37;98637.63;5012424;28;20057;-80
2023/12/01 01:21:54;;;;;;;42.40;20.48;;;;;;;2.77;74.34;98639.47;5012598;28;20142;-80
2023/12/01 01:24:21;;;;;;;50.45;22.50;;;;;;;2.74;74.62;98635.22;5012392;28;20057;-82
2023/12/01 01:26:48;;;;;;;47.45;22.52;;;;;;;2.74;74.75;98644.78;5012255;28;20481;-81
2023/12/01 01:29:14;;;;;;;46.22;22.42;;;;;;;2.73;74.78;98654.34;5012492;28;20115;-80
2023/12/01 01:31:41;;;;;;;51.70;23.02;;;;;;;2.73;75.15;98649.13;5012114;28;20088;-80
2023/12/01 01:34:08;;;;;;;63.17;23.05;;;;;;;2.74;75.25;98658.63;5012133;28;20061;-80
2023/12/01 01:36:35;;;;;;;60.95;22.13;;;;;;;2.76;74.94;98657.72;5011705;28;20096;-80
2023/12/01 01:39:01;;;;;;;48.85;21.92;;;;;;;2.76;75.21;98657.72;5012032;28;20065;-81
2023/12/01 01:41:28;;;;;;;58.97;22.27;;;;;;;2.76;74.93;98666.34;5012019;28;20136;-82
2023/12/01 01:43:54;;;;;;;60.95;21.65;;;;;;;2.74;74.59;98658.63;5011939;28;20050;-80
2023/12/01 01:46:21;;;;;;;50.20;21.10;;;;;;;2.73;74.77;98659.53;5012093;28;20052;-80
2023/12/01 01:48:48;;;;;;;51.38;22.48;;;;;;;2.74;74.78;98670.78;5011790;28;20050;-79
2023/12/01 01:51:15;;;;;;;57.70;21.65;;;;;;;2.73;74.72;98669.94;4994352;28;20584;-80
2023/12/01 01:53:41;;;;;;;55.45;21.10;;;;;;;2.74;75.16;98671.59;5011608;28;20124;-79
2023/12/01 01:56:09;;;;;;;54.67;21.45;;;;;;;2.75;74.76;98669.88;5011663;28;20103;-81
2023/12/01 01:58:36;;;;;;;46.13;21.15;;;;;;;2.76;74.62;98678.53;4994601;28;20100;-80
2023/12/01 02:01:02;;;;;;;45.72;19.98;;;;;;;2.75;74.76;98675.06;5011970;28;20451;-80
2023/12/01 02:03:29;;;;;;;42.28;20.02;;;;;;;2.74;74.86;98678.59;5011814;28;20137;-80
2023/12/01 02:05:55;;;;;;;77.43;22.27;;;;;;;2.73;74.59;98680.31;5011489;28;20104;-81
2023/12/01 02:08:27;;;;;;;62.60;20.88;;;;;;;2.72;75.01;98689.03;5011384;28;20045;-81
2023/12/01 02:10:54;;;;;;;49.88;20.27;;;;;;;2.71;74.91;98689.94;5011753;28;20058;-80
2023/12/01 02:13:23;;;;;;;53.38;19.95;;;;;;;2.71;74.53;98682.16;5011434;28;20056;-80
2023/12/01 02:15:51;;;;;;;41.78;18.95;;;;;;;2.71;74.52;98684.75;4993971;28;20046;-80
2023/12/01 02:18:25;;;;;;;55.80;19.80;;;;;;;2.67;73.60;98683.19;5011578;28;20454;-80
2023/12/01 02:20:53;;;;;;;43.38;19.50;;;;;;;2.69;74.41;98691.75;5011325;28;20054;-80
2023/12/01 02:23:21;;;;;;;45.35;20.02;;;;;;;2.68;74.39;98691.81;5011542;28;20109;-79
2023/12/01 02:25:47;;;;;;;53.03;20.08;;;;;;;2.65;74.16;98687.59;5011257;28;20084;-80
2023/12/01 02:28:15;;;;;;;54.42;19.58;;;;;;;2.63;74.14;98686.81;5011317;28;20108;-80
2023/12/01 02:30:43;;;;;;;70.97;20.58;;;;;;;2.61;74.43;98680.84;4993827;28;20084;-80
2023/12/01 02:33:17;;;;;;;50.03;18.13;;;;;;;2.57;73.52;98689.66;4993859;28;20072;-79
2023/12/01 02:35:54;;;;;;;55.75;19.38;;;;;;;2.53;72.93;98690.69;5011206;28;20095;-80
2023/12/01 02:38:20;;;;;;;60.65;19.33;;;;;;;2.52;74.11;98689.00;5011343;28;20050;-79
2023/12/01 02:40:50;;;;;;;45.05;18.58;;;;;;;2.47;74.38;98682.25;5011033;28;20078;-80
2023/12/01 02:43:19;;;;;;;44.92;19.88;;;;;;;2.44;74.04;98682.38;4993790;28;20050;-78
2023/12/01 02:45:47;;;;;;;58.60;19.33;;;;;;;2.41;74.50;98685.13;4993173;28;20045;-79
2023/12/01 02:48:15;;;;;;;43.75;18.63;;;;;;;2.39;73.99;98686.91;5010099;28;20141;-81
2023/12/01 02:50:41;;;;;;;45.22;18.85;;;;;;;2.37;74.19;98693.06;4993511;28;20565;-80
2023/12/01 02:53:08;;;;;;;51.55;19.02;;;;;;;2.34;74.41;98694.06;4993423;28;20071;-79
2023/12/01 02:55:34;;;;;;;48.88;18.17;;;;;;;2.32;73.94;98701.06;5010835;28;20415;-79
2023/12/01 02:58:01;;;;;;;43.13;17.30;;;;;;;2.28;74.55;98692.53;5010922;28;20128;-79
2023/12/01 03:00:29;;;;;;;61.20;19.38;;;;;;;2.27;74.26;98690.84;4993424;28;20446;-78
2023/12/01 03:02:55;;;;;;;46.88;19.67;;;;;;;2.25;74.71;98690.09;5010675;28;20054;-79
2023/12/01 03:05:22;;;;;;;45.17;18.05;;;;;;;2.25;74.70;98702.22;5010627;28;20088;-83
2023/12/01 03:07:49;;;;;;;51.88;19.25;;;;;;;2.24;74.40;98706.56;5010759;28;20526;-79
2023/12/01 03:10:16;;;;;;;47.60;17.58;;;;;;;2.21;74.07;98697.13;5010786;28;20053;-79
2023/12/01 03:12:44;;;;;;;50.97;17.65;;;;;;;2.19;73.92;98706.75;4993500;28;20052;-79
2023/12/01 03:15:19;;;;;;;41.55;17.02;;;;;;;2.16;73.45;98703.41;4993185;28;20050;-79
2023/12/01 03:17:47;;;;;;;37.13;17.75;;;;;;;2.12;73.85;98699.25;5010809;28;20414;-77
2023/12/01 03:20:15;;;;;;;36.20;16.85;;;;;;;2.08;73.84;98708.91;5010520;28;20056;-79
2023/12/01 03:22:46;;;;;;;39.42;17.80;;;;;;;2.06;74.57;98708.13;5010836;28;20112;-78
2023/12/01 03:25:13;;;;;;;51.88;18.23;;;;;;;2.07;74.77;98707.22;5010387;28;20113;-79
2023/12/01 03:27:42;;;;;;;40.78;17.50;;;;;;;2.06;74.89;98706.38;5010472;28;20054;-79
2023/12/01 03:30:13;;;;;;;40.13;17.25;;;;;;;2.06;75.14;98708.13;4993228;28;20112;-78
2023/12/01 03:32:53;;;;;;;47.42;18.20;;;;;;;2.06;73.49;98715.94;5010772;28;20050;-79
2023/12/01 03:35:22;;;;;;;44.17;18.52;;;;;;;2.09;74.67;98710.59;4992918;28;20097;-78
2023/12/01 03:37:50;;;;;;;99.03;18.05;;;;;;;2.13;74.80;98713.94;5010418;28;20476;-79
2023/12/01 03:40:17;;;;;;;64.75;18.10;;;;;;;2.13;75.16;98709.56;5010319;28;20141;-80
2023/12/01 03:42:46;;;;;;;57.60;19.38;;;;;;;2.13;74.66;98704.38;5010713;28;20083;-79
2023/12/01 03:45:13;;;;;;;67.25;18.67;;;;;;;2.14;74.66;98700.91;5009986;28;20081;-79
2023/12/01 03:47:43;;;;;;;119.90;19.73;;;;;;;2.13;74.09;98706.16;5010340;28;20423;-79
2023/12/01 03:50:13;;;;;;;67.38;18.30;;;;;;;2.13;74.26;98711.34;5010343;28;20050;-80
2023/12/01 03:52:45;;;;;;;64.00;18.50;;;;;;;2.10;73.56;98720.09;4992755;28;20478;-80
2023/12/01 03:55:12;;;;;;;62.50;16.45;;;;;;;2.10;74.02;98709.72;5010345;28;20053;-79
2023/12/01 03:57:40;;;;;;;61.88;17.63;;;;;;;2.08;74.39;98709.75;4993105;28;20046;-80
2023/12/01 04:00:16;;;;;;;51.75;16.15;;;;;;;2.07;74.06;98713.28;5013877;28;20060;-79
2023/12/01 04:02:44;;;;;;;65.53;17.63;;;;;;;2.06;74.00;98710.72;5013770;28;20049;-79
2023/12/01 04:05:19;;;;;;;55.90;16.77;;;;;;;2.04;74.22;98718.56;5013332;28;20104;-79
2023/12/01 04:07:51;;;;;;;48.42;17.42;;;;;;;2.02;73.70;98720.38;5014092;28;20450;-79
2023/12/01 04:10:21;;;;;;;43.22;16.20;;;;;;;1.99;73.80;98720.50;5013884;28;20054;-79
2023/12/01 04:12:47;;;;;;;46.70;15.73;;;;;;;1.95;74.06;98716.34;5013728;28;20058;-79
2023/12/01 04:15:16;;;;;;;53.60;15.45;;;;;;;1.90;73.82;98716.50;5013302;28;20510;-79
2023/12/01 04:17:44;;;;;;;52.33;16.25;;;;;;;1.84;73.41;98721.94;5013240;28;20121;-79
2023/12/01 04:20:25;;;;;;;40.65;17.17;;;;;;;1.78;74.30;98719.56;5013523;28;20058;-81
2023/12/01 04:22:56;;;;;;;46.38;16.50;;;;;;;1.72;74.12;98725.00;5013591;28;20061;-79
2023/12/01 04:25:23;;;;;;;36.05;16.98;;;;;;;1.68;74.49;98727.69;5013321;28;20081;-80
2023/12/01 04:27:51;;;;;;;35.60;16.10;;;;;;;1.65;74.23;98729.56;5013491;28;20415;-81
2023/12/01 04:30:20;;;;;;;40.53;17.23;;;;;;;1.63;74.26;98732.22;5013115;28;20508;-80
2023/12/01 04:32:55;;;;;;;39.45;16.98;;;;;;;1.62;74.84;98738.31;5013376;28;20053;-79
2023/12/01 04:35:28;;;;;;;44.92;16.38;;;;;;;1.62;74.57;98733.13;4995589;28;20050;-80
2023/12/01 04:37:59;;;;;;;45.88;16.60;;;;;;;1.62;74.11;98734.84;4995935;28;20050;-80
2023/12/01 04:40:27;;;;;;;36.95;16.27;;;;;;;1.64;74.94;98740.84;5013040;28;20046;-79
2023/12/01 04:42:55;;;;;;;45.40;16.92;;;;;;;1.65;75.40;98730.38;5012913;28;20054;-80
2023/12/01 04:45:27;;;;;;;36.05;15.00;;;;;;;1.66;74.14;98739.03;5012890;28;20116;-80
2023/12/01 04:47:55;;;;;;;39.30;16.05;;;;;;;1.67;74.54;98736.38;5012991;28;20046;-79
2023/12/01 04:50:24;;;;;;;44.60;17.38;;;;;;;1.68;74.76;98745.84;5012992;28;20049;-79
2023/12/01 04:52:53;;;;;;;48.65;18.17;;;;;;;1.69;74.55;98744.94;5012849;28;20058;-80
2023/12/01 04:55:22;;;;;;;39.60;16.75;;;;;;;1.70;74.40;98738.00;5012234;28;20569;-81
2023/12/01 04:57:49;;;;;;;39.53;17.42;;;;;;;1.68;74.73;98738.06;5012849;28;20060;-79
2023/12/01 05:00:21;;;;;;;47.88;18.15;;;;;;;1.69;74.13;98747.53;4995376;28;20050;-80
2023/12/01 05:03:14;;;;;;;29.20;12.18;;;;;;;1.68;72.94;98753.63;5012965;28;20415;-80
2023/12/01 05:05:41;;;;;;;39.45;15.88;;;;;;;1.72;74.46;98749.16;5008110;28;20054;-80
2023/12/01 05:08:09;;;;;;;46.90;17.42;;;;;;;1.72;74.78;98754.34;5012604;28;20548;-79
2023/12/01 05:10:37;;;;;;;41.40;18.05;;;;;;;1.71;74.76;98751.84;4994046;28;20483;-78
2023/12/01 05:13:05;;;;;;;41.45;18.27;;;;;;;1.71;74.87;98765.66;5012610;28;20061;-80
2023/12/01 05:15:34;;;;;;;39.28;17.60;;;;;;;1.71;74.62;98760.47;5012340;28;20089;-80
2023/12/01 05:18:06;;;;;;;39.13;16.95;;;;;;;1.71;74.04;98770.84;5012607;28;20061;-79
2023/12/01 05:20:34;;;;;;;30.63;12.20;;;;;;;1.74;74.47;98769.88;5012520;28;20056;-80
2023/12/01 05:23:05;;;;;;;37.63;15.57;;;;;;;1.75;74.74;98766.41;4994824;28;20300;-80
2023/12/01 05:25:32;;;;;;;35.60;16.35;;;;;;;1.76;74.64;98773.28;5012345;28;20076;-80
2023/12/01 05:28:02;;;;;;;33.17;14.73;;;;;;;1.77;74.25;98783.59;5012319;28;20485;-80
2023/12/01 05:30:32;;;;;;;40.72;16.00;;;;;;;1.77;74.76;98775.81;5012224;28;20186;-79
2023/12/01 05:32:59;;;;;;;35.03;16.02;;;;;;;1.78;74.36;98779.25;5012504;28;20050;-80
2023/12/01 05:35:27;;;;;;;39.92;16.10;;;;;;;1.78;74.30;98766.25;5012150;28;20140;-79
2023/12/01 05:37:56;;;;;;;38.13;17.13;;;;;;;1.78;74.53;98774.06;4994966;28;20108;-77
2023/12/01 05:40:27;;;;;;;38.15;17.30;;;;;;;1.76;73.60;98776.69;4994851;28;20076;-78
2023/12/01 05:42:55;;;;;;;42.83;17.15;;;;;;;1.79;74.18;98779.19;5012112;28;20112;-78
2023/12/01 05:45:27;;;;;;;37.17;16.52;;;;;;;1.76;73.72;98788.84;4994401;28;20104;-79
2023/12/01 05:47:55;;;;;;;39.13;16.90;;;;;;;1.77;74.30;98793.97;5011804;28;20145;-76
2023/12/01 05:50:27;;;;;;;35.17;16.70;;;;;;;1.76;73.81;98797.44;5011070;28;20054;-78
2023/12/01 05:52:56;;;;;;;34.22;15.27;;;;;;;1.75;73.99;98803.56;5011089;28;20419;-78
2023/12/01 05:55:28;;;;;;;36.85;16.60;;;;;;;1.74;74.07;98804.47;5011002;28;20046;-78
2023/12/01 05:57:55;;;;;;;26.00;11.07;;;;;;;1.75;73.76;98800.97;5011494;28;20402;-77
2023/12/01 06:00:26;;;;;;;35.53;15.55;;;;;;;1.75;74.19;98807.91;5011100;28;20511;-76
2023/12/01 06:02:53;;;;;;;34.88;16.50;;;;;;;1.75;74.26;98807.91;5011182;28;20426;-78
2023/12/01 06:05:20;;;;;;;35.17;15.70;;;;;;;1.75;74.40;98807.91;5011435;28;20112;-78
2023/12/01 06:07:54;;;;;;;36.90;15.90;;;;;;;1.75;74.53;98803.56;5011659;28;20054;-78
2023/12/01 06:10:22;;;;;;;35.33;16.40;;;;;;;1.76;74.12;98805.25;5011656;28;20085;-77
2023/12/01 06:12:49;;;;;;;36.13;16.08;;;;;;;1.77;74.07;98808.69;4994264;28;20060;-78
2023/12/01 06:15:17;;;;;;;31.80;15.30;;;;;;;1.76;74.11;98804.41;5011689;28;20050;-77
2023/12/01 06:17:46;;;;;;;37.85;16.83;;;;;;;1.77;73.95;98808.69;4994224;28;20053;-78
2023/12/01 06:20:17;;;;;;;37.83;17.08;;;;;;;1.78;74.37;98815.56;5011338;28;20042;-78
2023/12/01 06:22:48;;;;;;;38.40;16.60;;;;;;;1.79;73.97;98818.09;5011229;28;20125;-77
2023/12/01 06:25:16;;;;;;;36.35;16.15;;;;;;;1.79;74.45;98825.91;5011415;28;20479;-77
2023/12/01 06:27:42;;;;;;;37.05;16.63;;;;;;;1.81;74.37;98831.03;5011385;28;20061;-79
2023/12/01 06:30:11;;;;;;;37.22;16.63;;;;;;;1.80;74.00;98834.53;5011223;28;20060;-77
2023/12/01 06:32:43;;;;;;;36.83;16.70;;;;;;;1.79;73.07;98838.88;5011208;28;20050;-77
2023/12/01 06:35:15;;;;;;;36.17;17.13;;;;;;;1.80;73.17;98844.91;5011108;28;20056;-78
2023/12/01 06:37:42;;;;;;;35.50;16.15;;;;;;;1.80;74.17;98842.31;4993518;28;20054;-79
2023/12/01 06:40:12;;;;;;;34.70;15.88;;;;;;;1.79;73.27;98846.66;4993549;28;20050;-78
2023/12/01 06:42:40;;;;;;;35.58;16.83;;;;;;;1.77;73.75;98839.81;5010188;28;20491;-78
2023/12/01 06:45:14;;;;;;;34.60;16.85;;;;;;;1.75;73.30;98841.66;5010756;28;20057;-79
2023/12/01 06:47:43;;;;;;;36.88;16.73;;;;;;;1.76;74.01;98840.72;5010563;28;20053;-78
2023/12/01 06:50:14;;;;;;;35.63;16.23;;;;;;;1.75;73.95;98842.47;5011143;28;20689;-79
2023/12/01 06:52:46;;;;;;;34.65;17.05;;;;;;;1.73;73.26;98846.03;5011101;28;20491;-78
2023/12/01 06:55:12;;;;;;;38.33;17.13;;;;;;;1.74;74.15;98850.31;4993619;28;20050;-79
2023/12/01 06:57:44;;;;;;;37.25;17.60;;;;;;;1.73;73.41;98854.66;4993600;28;20054;-78
2023/12/01 07:03:02;;;;;;;35.20;17.13;;;;;;;1.74;73.31;98858.94;5011113;28;20164;-79
2023/12/01 07:05:31;;;;;;;36.03;17.27;;;;;;;1.74;73.50;98858.09;5010909;28;20061;-80
2023/12/01 07:08:00;;;;;;;34.22;17.15;;;;;;;1.74;73.91;98864.13;4993517;28;20081;-79
2023/12/01 07:10:28;;;;;;;33.47;15.73;;;;;;;1.74;73.88;98871.06;4993112;28;20096;-79
2023/12/01 07:12:55;;;;;;;32.75;17.05;;;;;;;1.74;73.77;98874.50;5009505;28;20141;-79
2023/12/01 07:15:25;;;;;;;35.17;16.67;;;;;;;1.72;72.93;98871.09;5010069;28;20193;-78
2023/12/01 07:17:53;;;;;;;35.78;17.10;;;;;;;1.73;73.56;98867.63;5009967;28;20557;-78
2023/12/01 07:20:21;;;;;;;30.77;16.75;;;;;;;1.72;73.72;98876.31;5010015;28;20762;-78
2023/12/01 07:22:51;;;;;;;30.98;16.33;;;;;;;1.71;73.24;98871.19;4992871;28;20068;-79
2023/12/01 07:25:21;;;;;;;33.30;16.73;;;;;;;1.70;72.97;98883.31;5010130;28;20054;-78
2023/12/01 07:27:57;;;;;;;32.67;16.55;;;;;;;1.66;72.46;98889.50;4993402;28;20045;-77
2023/12/01 07:30:25;;;;;;;28.08;14.55;;;;;;;1.64;73.21;98892.13;5010634;28;20050;-78
2023/12/01 07:32:52;;;;;;;30.92;16.13;;;;;;;1.64;73.67;98893.91;5011018;28;20506;-78
2023/12/01 07:35:20;;;;;;;31.80;16.33;;;;;;;1.64;73.74;98891.31;4996737;28;20085;-78
2023/12/01 07:37:48;;;;;;;32.08;16.73;;;;;;;1.65;73.60;98899.00;5014549;28;20573;-79
2023/12/01 07:40:19;;;;;;;29.83;16.50;;;;;;;1.66;73.74;98898.13;5014517;28;20056;-79
2023/12/01 07:42:47;;;;;;;29.35;16.23;;;;;;;1.68;73.79;98898.91;4996934;28;20511;-80
2023/12/01 07:45:17;;;;;;;35.80;17.08;;;;;;;1.69;73.61;98899.78;5014244;28;20058;-78
2023/12/01 07:47:48;;;;;;;29.42;14.75;;;;;;;1.68;73.05;98901.50;5014056;28;20049;-77
2023/12/01 07:50:16;;;;;;;29.00;15.50;;;;;;;1.71;73.69;98894.53;5014168;28;20054;-79
2023/12/01 07:52:43;;;;;;;31.77;16.67;;;;;;;1.73;73.31;98905.69;5014154;28;20053;-78
2023/12/01 07:55:10;;;;;;;29.92;15.85;;;;;;;1.74;73.97;98900.47;5014152;28;20053;-78
2023/12/01 07:57:38;;;;;;;31.20;15.85;;;;;;;1.76;73.60;98910.78;5014247;28;20046;-78
2023/12/01 08:00:05;;;;;;;33.17;16.33;;;;;;;1.75;73.40;98922.91;5014045;28;20099;-79
2023/12/01 08:02:32;;;;;;;30.27;15.93;;;;;;;1.74;73.30;98918.63;4996734;28;20046;-79
2023/12/01 08:04:59;;;;;;;31.48;15.80;;;;;;;1.73;73.51;98911.75;5013832;28;20116;-78
2023/12/01 08:07:26;;;;;;;34.00;17.42;;;;;;;1.71;73.50;98917.91;5014014;28;20100;-79
2023/12/01 08:09:53;;;;;;;34.13;16.60;;;;;;;1.70;73.22;98919.63;5014055;28;20137;-79
2023/12/01 08:12:24;;;;;;;29.25;16.45;;;;;;;1.71;73.57;98912.69;5013893;28;20475;-79
2023/12/01 08:14:51;;;;;;;29.95;16.35;;;;;;;1.72;73.62;98919.56;5013771;28;20041;-79
2023/12/01 08:17:18;;;;;;;32.85;17.02;;;;;;;1.74;73.59;98923.81;4996539;28;20057;-78
2023/12/01 08:19:44;;;;;;;32.95;17.00;;;;;;;1.75;73.52;98920.31;5013891;28;20077;-79
2023/12/01 08:22:11;;;;;;;32.38;17.67;;;;;;;1.76;73.35;98926.34;5013864;28;20058;-79
2023/12/01 08:24:38;;;;;;;29.23;15.90;;;;;;;1.77;73.49;98933.25;5013720;28;20065;-78
2023/12/01 08:27:07;;;;;;;32.45;17.13;;;;;;;1.77;73.58;98928.03;5013614;28;20050;-79
2023/12/01 08:29:35;;;;;;;28.88;15.80;;;;;;;1.78;73.92;98938.38;5013460;28;20057;-79
2023/12/01 08:32:03;;;;;;;28.05;16.08;;;;;;;1.80;74.13;98936.56;4996206;28;20141;-78
2023/12/01 08:34:30;;;;;;;28.70;15.43;;;;;;;1.82;73.97;98926.13;5013538;28;20041;-78
2023/12/01 08:36:56;;;;;;;29.10;16.02;;;;;;;1.84;73.79;98920.91;5013599;28;20072;-77
2023/12/01 08:39:23;;;;;;;31.23;16.05;;;;;;;1.85;73.82;98931.22;5013334;28;20052;-77
2023/12/01 08:41:53;;;;;;;29.50;15.68;;;;;;;1.87;73.80;98933.78;5013385;28;20058;-77
2023/12/01 08:44:20;;;;;;;32.40;16.35;;;;;;;1.87;73.20;98937.19;5012661;28;20050;-78
2023/12/01 08:46:46;;;;;;;29.40;15.75;;;;;;;1.89;73.69;98934.56;5013115;28;20049;-79
2023/12/01 08:49:13;;;;;;;28.23;15.35;;;;;;;1.90;73.37;98934.50;5013216;28;20053;-77
2023/12/01 08:51:40;;;;;;;31.33;15.52;;;;;;;1.91;73.33;98938.78;4995934;28;20045;-78
2023/12/01 08:54:06;;;;;;;25.33;14.30;;;;;;;1.90;73.33;98934.50;5012965;28;20057;-78
2023/12/01 08:56:34;;;;;;;24.10;13.07;;;;;;;1.92;73.43;98937.91;4995809;28;20057;-78
2023/12/01 08:59:00;;;;;;;24.85;13.93;;;;;;;1.92;73.59;98937.06;5012841;28;20509;-78
2023/12/01 09:01:27;;;;;;;25.60;14.32;;;;;;;1.94;73.29;98943.88;5013116;28;20507;-80
2023/12/01 09:03:54;;;;;;;25.13;14.07;;;;;;;1.95;73.64;98942.97;5012617;28;20062;-78
2023/12/01 09:06:21;;;;;;;26.80;14.05;;;;;;;1.98;73.78;98947.22;5013008;28;20395;-78
2023/12/01 09:08:47;;;;;;;26.50;15.13;;;;;;;1.99;73.33;98951.53;5012679;28;20050;-79
2023/12/01 09:11:14;;;;;;;29.38;15.10;;;;;;;2.00;72.94;98944.56;5012719;28;20513;-78
2023/12/01 09:13:41;;;;;;;26.48;14.32;;;;;;;2.01;72.76;98947.09;5012427;28;20487;-79
2023/12/01 09:16:08;;;;;;;26.30;14.70;;;;;;;2.01;72.92;98948.84;5012922;28;20104;-78
2023/12/01 09:18:34;;;;;;;29.45;15.90;;;;;;;2.02;73.00;98953.16;5012510;28;20057;-78
2023/12/01 09:21:01;;;;;;;28.83;15.95;;;;;;;2.02;73.42;98953.16;4995298;28;20050;-77
2023/12/01 09:23:28;;;;;;;26.45;15.15;;;;;;;2.04;73.60;98951.34;5012599;28;20061;-78
2023/12/01 09:25:55;;;;;;;30.13;15.32;;;;;;;2.04;73.17;98951.34;5012304;28;20050;-77
2023/12/01 09:28:23;;;;;;;25.85;14.63;;;;;;;2.04;71.93;98953.94;5012461;28;20090;-78
2023/12/01 09:30:51;;;;;;;26.63;13.80;;;;;;;2.02;72.53;98958.34;5012540;28;20134;-79
2023/12/01 09:33:17;;;;;;;27.60;15.05;;;;;;;1.99;72.47;98954.13;5012438;28;20481;-78
2023/12/01 09:35:44;;;;;;;25.17;14.07;;;;;;;1.97;72.79;98961.09;5012222;28;20129;-79
2023/12/01 09:38:24;;;;;;;25.30;13.50;;;;;;;1.97;73.12;98960.28;4996488;28;20384;-79
2023/12/01 09:40:51;;;;;;;23.50;13.88;;;;;;;1.95;73.17;98973.28;4994991;28;20136;-79
2023/12/01 09:43:18;;;;;;;25.10;14.63;;;;;;;1.93;73.00;98968.16;5012184;28;20064;-77
2023/12/01 09:45:45;;;;;;;25.88;13.55;;;;;;;1.91;72.41;98977.72;5012166;28;20046;-78
2023/12/01 09:48:13;;;;;;;28.45;15.05;;;;;;;1.89;73.00;98979.53;5012198;28;20144;-79
2023/12/01 09:50:40;;;;;;;26.70;13.77;;;;;;;1.89;73.35;98974.34;5012006;28;20061;-79
2023/12/01 09:53:08;;;;;;;25.55;14.27;;;;;;;1.91;73.32;98979.50;5011836;28;20049;-79
2023/12/01 09:55:35;;;;;;;23.23;12.95;;;;;;;1.92;73.52;98979.44;4994047;28;20089;-78
2023/12/01 09:58:02;;;;;;;24.80;14.02;;;;;;;1.95;73.19;98983.69;5012110;28;20058;-77
2023/12/01 10:00:28;;;;;;;27.25;15.18;;;;;;;1.98;72.80;98987.91;5011877;28;20093;-78
2023/12/01 10:02:55;;;;;;;23.30;13.73;;;;;;;2.00;73.51;98983.50;5011818;28;20042;-79
2023/12/01 10:05:22;;;;;;;26.33;15.20;;;;;;;2.03;73.29;98997.25;5011527;28;20092;-79
2023/12/01 10:07:50;;;;;;;26.10;14.20;;;;;;;2.05;73.07;98987.63;5011583;28;20053;-78
2023/12/01 10:10:21;;;;;;;25.45;13.70;;;;;;;2.09;72.97;98996.16;5011829;28;20051;-79
2023/12/01 10:12:55;;;;;;;24.92;13.88;;;;;;;2.09;71.43;98990.97;5011640;28;20100;-78
2023/12/01 10:15:24;;;;;;;22.05;13.07;;;;;;;2.10;72.26;98992.69;5011454;28;20050;-78
2023/12/01 10:17:52;;;;;;;21.65;13.50;;;;;;;2.10;72.79;99000.47;4994019;28;20068;-76
2023/12/01 10:20:21;;;;;;;23.80;14.02;;;;;;;2.12;73.32;98995.19;5011366;28;20056;-78
2023/12/01 10:22:49;;;;;;;23.80;14.00;;;;;;;2.13;73.34;98995.16;4994146;28;20069;-78
2023/12/01 10:25:16;;;;;;;25.50;15.27;;;;;;;2.17;73.37;98999.34;5011449;28;20060;-79
2023/12/01 10:27:53;;;;;;;25.17;14.82;;;;;;;2.18;71.60;99002.81;5011416;28;20045;-79
2023/12/01 10:30:20;;;;;;;22.52;13.70;;;;;;;2.24;72.91;99009.53;4993915;28;20092;-79
2023/12/01 10:32:51;;;;;;;24.83;14.57;;;;;;;2.26;73.01;99007.72;5011312;28;20045;-78
2023/12/01 10:35:18;;;;;;;23.38;14.18;;;;;;;2.26;72.89;99003.38;5011252;28;20056;-78
2023/12/01 10:37:46;;;;;;;22.90;13.50;;;;;;;2.27;72.57;98999.00;5011210;28;20522;-78
2023/12/01 10:40:14;;;;;;;21.15;13.23;;;;;;;2.28;72.51;98998.13;5011342;28;20089;-79
2023/12/01 10:42:42;;;;;;;22.50;13.13;;;;;;;2.27;72.37;99004.22;5011097;28;20056;-78
2023/12/01 10:45:11;;;;;;;22.23;13.68;;;;;;;2.25;72.52;99001.69;5010834;28;20092;-76
2023/12/01 10:47:44;;;;;;;21.65;13.68;;;;;;;2.27;72.64;98993.81;5011191;28;20057;-79
2023/12/01 10:50:12;;;;;;;20.25;12.77;;;;;;;2.28;72.12;98998.97;4993641;28;20501;-78
2023/12/01 10:52:41;;;;;;;23.23;13.45;;;;;;;2.30;72.57;98989.38;5011235;28;20494;-77
2023/12/01 10:55:08;;;;;;;23.48;14.23;;;;;;;2.31;72.71;98992.81;5010932;28;20049;-78
2023/12/01 10:57:39;;;;;;;21.80;13.77;;;;;;;2.33;72.52;98991.84;5010942;28;20064;-78
2023/12/01 11:00:19;;;;;;;21.65;13.23;;;;;;;2.34;72.43;98988.38;4993478;28;20461;-78
2023/12/01 11:02:48;;;;;;;22.13;13.18;;;;;;;2.38;73.21;98985.66;5010911;28;20309;-79
2023/12/01 11:05:16;;;;;;;24.40;13.57;;;;;;;2.39;73.09;98983.00;5010824;28;20177;-79
2023/12/01 11:07:57;;;;;;;22.30;14.15;;;;;;;2.40;70.87;98989.06;5011152;28;20050;-78
2023/12/01 11:10:41;;;;;;;22.35;13.73;;;;;;;2.42;70.74;98982.91;5014917;28;20565;-79
2023/12/01 11:13:47;;;;;;;24.35;13.88;;;;;;;2.42;69.84;98982.03;5015176;28;20046;-78
2023/12/01 11:16:15;;;;;;;19.77;12.02;;;;;;;2.46;72.67;98966.31;4997592;28;20045;-77
2023/12/01 11:18:43;;;;;;;25.67;14.65;;;;;;;2.46;72.50;98966.31;5014725;28;20502;-79
2023/12/01 11:21:10;;;;;;;22.23;13.23;;;;;;;2.49;72.73;98978.34;5014976;28;20108;-81
2023/12/01 11:23:37;;;;;;;24.38;13.52;;;;;;;2.50;72.62;98974.81;5014748;28;20054;-78
2023/12/01 11:26:06;;;;;;;20.42;12.63;;;;;;;2.50;71.76;98977.41;4997373;28;20050;-78
2023/12/01 11:31:08;;;;;;;23.73;13.70;;;;;;;2.54;72.75;98972.97;5014708;28;20054;-79
2023/12/01 11:33:51;;;;;;;22.67;13.25;;;;;;;2.53;71.91;98966.94;5014522;28;20104;-80
2023/12/01 11:36:36;;;;;;;21.00;13.15;;;;;;;2.52;69.87;98970.44;5014733;28;20510;-78